createdAt,value
2019-02-05T00:00:49.806Z,10.17
2019-02-05T00:03:21.955Z,9.80
2019-02-05T00:05:51.517Z,8.33
2019-02-05T00:08:21.039Z,9.97
2019-02-05T00:10:50.156Z,10.67
2019-02-05T00:13:19.199Z,7.43
2019-02-05T00:15:48.137Z,10.13
2019-02-05T00:18:17.070Z,10.03
2019-02-05T00:20:46.717Z,7.77
2019-02-05T00:23:15.989Z,10.90
2019-02-05T00:25:44.937Z,8.83
2019-02-05T00:28:14.029Z,9.13
2019-02-05T00:30:43.088Z,12.30
2019-02-05T00:33:12.394Z,7.47
2019-02-05T00:35:41.489Z,10.43
2019-02-05T00:38:10.620Z,9.30
2019-02-05T00:40:39.657Z,6.97
2019-02-05T00:43:08.790Z,9.33
2019-02-05T00:45:37.864Z,8.33
2019-02-05T00:48:06.872Z,8.27
2019-02-05T00:50:35.809Z,9.80
2019-02-05T00:53:05.221Z,8.13
2019-02-05T00:55:34.331Z,8.63
2019-02-05T00:58:03.712Z,8.17
2019-02-05T01:00:32.902Z,9.13
2019-02-05T01:03:02.139Z,9.67
2019-02-05T01:05:31.269Z,8.20
2019-02-05T01:08:00.379Z,7.50
2019-02-05T01:10:29.448Z,8.80
2019-02-05T01:12:58.764Z,8.10
2019-02-05T01:15:27.769Z,8.33
2019-02-05T01:17:56.737Z,7.63
2019-02-05T01:20:26.371Z,7.50
2019-02-05T01:22:55.536Z,7.40
2019-02-05T01:25:24.666Z,9.53
2019-02-05T01:27:53.499Z,9.20
2019-02-05T01:30:24.430Z,8.70
2019-02-05T01:32:53.408Z,7.67
2019-02-05T01:35:22.808Z,7.70
2019-02-05T01:37:52.459Z,8.87
2019-02-05T01:40:23.492Z,8.23
2019-02-05T01:42:52.772Z,8.43
2019-02-05T01:45:22.708Z,7.23
2019-02-05T01:47:52.126Z,7.93
2019-02-05T01:50:26.107Z,8.80
2019-02-05T01:52:55.308Z,9.53
2019-02-05T01:55:24.786Z,8.27
2019-02-05T01:57:53.771Z,7.00
2019-02-05T02:00:30.642Z,9.33
2019-02-05T02:02:59.395Z,7.80
2019-02-05T02:05:28.477Z,9.43
2019-02-05T02:07:57.952Z,7.73
2019-02-05T02:10:28.722Z,9.87
2019-02-05T02:12:58.276Z,7.30
2019-02-05T02:15:27.306Z,7.93
2019-02-05T02:17:56.310Z,7.00
2019-02-05T02:20:25.399Z,10.73
2019-02-05T02:22:54.924Z,11.70
2019-02-05T02:25:24.003Z,9.50
2019-02-05T02:27:53.489Z,9.93
2019-02-05T02:30:30.961Z,8.20
2019-02-05T02:32:59.969Z,8.03
2019-02-05T02:35:30.157Z,6.80
2019-02-05T02:37:59.262Z,9.00
2019-02-05T02:40:28.384Z,8.27
2019-02-05T02:42:57.453Z,6.43
2019-02-05T02:45:26.429Z,8.83
2019-02-05T02:47:55.429Z,8.47
2019-02-05T02:50:24.666Z,8.47
2019-02-05T02:52:53.767Z,6.27
2019-02-05T02:55:22.864Z,6.93
2019-02-05T02:57:51.879Z,7.87
2019-02-05T03:00:21.410Z,6.17
2019-02-05T03:02:51.888Z,8.13
2019-02-05T03:05:22.761Z,8.27
2019-02-05T03:07:52.538Z,8.40
2019-02-05T03:10:27.227Z,7.60
2019-02-05T03:12:57.030Z,7.20
2019-02-05T03:15:26.547Z,9.10
2019-02-05T03:17:55.644Z,8.10
2019-02-05T03:20:24.718Z,6.47
2019-02-05T03:22:54.144Z,9.40
2019-02-05T03:25:24.090Z,6.17
2019-02-05T03:27:54.220Z,7.17
2019-02-05T03:30:23.665Z,8.00
2019-02-05T03:32:53.318Z,7.80
2019-02-05T03:35:23.358Z,6.27
2019-02-05T03:37:52.510Z,8.00
2019-02-05T03:40:59.642Z,8.37
2019-02-05T03:43:29.734Z,6.80
2019-02-05T03:46:00.592Z,8.20
2019-02-05T03:48:30.428Z,8.67
2019-02-05T03:51:33.298Z,8.60
2019-02-05T03:54:28.292Z,6.67
2019-02-05T03:57:15.953Z,7.10
2019-02-05T04:00:27.061Z,7.57
2019-02-05T04:03:44.602Z,7.37
2019-02-05T04:06:51.070Z,8.73
2019-02-05T04:09:47.501Z,9.73
2019-02-05T04:12:48.922Z,7.80
2019-02-05T04:16:04.390Z,11.67
2019-02-05T04:19:26.781Z,8.37
2019-02-05T04:22:37.353Z,7.90
2019-02-05T04:25:50.396Z,8.00
2019-02-05T04:28:47.595Z,8.53
2019-02-05T04:32:12.838Z,7.80
2019-02-05T04:35:22.936Z,7.93
2019-02-05T04:38:41.346Z,9.13
2019-02-05T04:41:27.152Z,8.60
2019-02-05T04:44:12.397Z,8.43
2019-02-05T04:47:19.854Z,7.07
2019-02-05T04:50:11.629Z,9.53
2019-02-05T04:52:52.507Z,8.13
2019-02-05T04:55:57.847Z,7.60
2019-02-05T04:59:02.654Z,7.43
2019-02-05T05:02:21.914Z,8.63
2019-02-05T05:05:07.772Z,6.77
2019-02-05T05:08:19.796Z,9.20
2019-02-05T05:10:49.176Z,8.20
2019-02-05T05:13:18.364Z,8.77
2019-02-05T05:15:47.432Z,7.60
2019-02-05T05:18:16.492Z,10.13
2019-02-05T05:20:45.920Z,8.73
2019-02-05T05:23:15.438Z,8.63
2019-02-05T05:25:44.880Z,8.37
2019-02-05T05:28:13.992Z,9.33
2019-02-05T05:30:43.106Z,8.03
2019-02-05T05:33:12.964Z,9.07
2019-02-05T05:35:44.594Z,8.00
2019-02-05T05:38:12.730Z,8.00
2019-02-05T05:40:41.726Z,8.13
2019-02-05T05:43:11.134Z,9.57
2019-02-05T05:45:40.213Z,8.17
2019-02-05T05:48:12.290Z,14.20
2019-02-05T05:50:41.237Z,7.87
2019-02-05T05:53:10.501Z,10.87
2019-02-05T05:55:39.370Z,8.60
2019-02-05T05:58:08.408Z,7.67
2019-02-05T06:00:37.338Z,8.27
2019-02-05T06:03:06.401Z,7.43
2019-02-05T06:05:35.682Z,9.27
2019-02-05T06:08:05.137Z,8.80
2019-02-05T06:10:34.334Z,9.60
2019-02-05T06:13:03.566Z,8.20
2019-02-05T06:15:35.727Z,10.53
2019-02-05T06:18:03.417Z,8.13
2019-02-05T06:20:34.410Z,7.33
2019-02-05T06:23:03.446Z,8.70
2019-02-05T06:25:32.743Z,8.60
2019-02-05T06:28:02.214Z,12.83
2019-02-05T06:30:31.499Z,11.03
2019-02-05T06:33:00.529Z,9.10
2019-02-05T06:35:29.772Z,8.27
2019-02-05T06:37:58.898Z,9.67
2019-02-05T06:40:28.402Z,10.30
2019-02-05T06:42:57.607Z,9.57
2019-02-05T06:45:26.535Z,8.37
2019-02-05T06:47:55.633Z,9.43
2019-02-05T06:50:26.424Z,8.80
2019-02-05T06:52:55.875Z,8.23
2019-02-05T06:55:24.887Z,7.90
2019-02-05T06:57:53.826Z,10.60
2019-02-05T07:00:25.761Z,10.50
2019-02-05T07:02:54.929Z,9.13
2019-02-05T07:05:24.282Z,11.20
2019-02-05T07:07:54.292Z,10.77
2019-02-05T07:10:23.779Z,8.80
2019-02-05T07:12:53.166Z,7.50
2019-02-05T07:15:22.330Z,8.63
2019-02-05T07:17:52.889Z,7.67
2019-02-05T07:20:22.059Z,9.30
2019-02-05T07:22:55.654Z,10.07
2019-02-05T07:25:24.421Z,10.43
2019-02-05T07:27:53.561Z,8.13
2019-02-05T07:30:23.787Z,11.30
2019-02-05T07:32:53.047Z,9.90
2019-02-05T07:35:22.679Z,8.77
2019-02-05T07:37:51.995Z,8.50
2019-02-05T07:40:21.912Z,10.20
2019-02-05T07:42:51.366Z,10.33
2019-02-05T07:45:21.342Z,8.87
2019-02-05T07:47:50.581Z,10.00
2019-02-05T07:50:22.022Z,10.10
2019-02-05T07:52:51.334Z,11.03
2019-02-05T07:55:20.730Z,13.10
2019-02-05T07:57:49.949Z,11.67
2019-02-05T08:00:29.222Z,10.93
2019-02-05T08:02:58.645Z,11.33
2019-02-05T08:05:30.009Z,9.23
2019-02-05T08:08:00.891Z,12.27
2019-02-05T08:10:30.292Z,13.30
2019-02-05T08:12:59.580Z,12.67
2019-02-05T08:15:30.588Z,10.47
2019-02-05T08:17:59.870Z,11.70
2019-02-05T08:20:29.198Z,11.57
2019-02-05T08:22:58.466Z,9.70
2019-02-05T08:25:27.966Z,11.23
2019-02-05T08:27:57.176Z,12.70
2019-02-05T08:30:31.942Z,13.13
2019-02-05T08:33:01.239Z,11.50
2019-02-05T08:35:30.779Z,12.03
2019-02-05T08:37:59.889Z,15.20
2019-02-05T08:40:29.092Z,15.87
2019-02-05T08:43:07.776Z,14.83
2019-02-05T08:45:39.567Z,12.10
2019-02-05T08:48:10.401Z,15.20
2019-02-05T08:50:40.453Z,11.73
2019-02-05T08:53:10.498Z,10.37
2019-02-05T08:55:41.267Z,13.70
2019-02-05T08:58:12.119Z,12.63
2019-02-05T09:00:45.490Z,28.13
2019-02-05T09:03:14.665Z,38.27
2019-02-05T09:05:44.467Z,14.80
2019-02-05T09:08:13.635Z,10.63
2019-02-05T09:10:43.252Z,12.00
2019-02-05T09:13:12.900Z,11.67
2019-02-05T09:15:41.962Z,12.43
2019-02-05T09:18:11.268Z,9.97
2019-02-05T09:20:40.518Z,11.60
2019-02-05T09:23:09.569Z,11.73
2019-02-05T09:25:38.577Z,10.83
2019-02-05T09:28:07.821Z,12.17
2019-02-05T09:30:37.186Z,10.70
2019-02-05T09:33:09.529Z,11.47
2019-02-05T09:35:38.678Z,11.83
2019-02-05T09:38:07.771Z,13.53
2019-02-05T09:40:36.751Z,10.67
2019-02-05T09:43:05.989Z,10.60
2019-02-05T09:45:35.880Z,11.10
2019-02-05T09:48:05.447Z,13.70
2019-02-05T09:50:44.231Z,13.37
2019-02-05T09:53:05.868Z,12.33
2019-02-05T09:55:36.150Z,10.47
2019-02-05T09:58:05.720Z,11.53
2019-02-05T10:00:37.451Z,12.23
2019-02-05T10:03:07.710Z,13.73
2019-02-05T10:05:37.214Z,13.40
2019-02-05T10:08:06.592Z,12.37
2019-02-05T10:10:35.947Z,13.07
2019-02-05T10:13:05.977Z,13.43
2019-02-05T10:15:36.570Z,12.50
2019-02-05T10:18:06.985Z,13.23
2019-02-05T10:20:36.172Z,12.90
2019-02-05T10:23:07.525Z,13.83
2019-02-05T10:25:37.268Z,12.83
2019-02-05T10:28:06.953Z,11.70
2019-02-05T10:30:41.980Z,16.80
2019-02-05T10:33:13.461Z,13.33
2019-02-05T10:35:43.265Z,14.60
2019-02-05T10:38:12.818Z,14.10
2019-02-05T10:40:41.995Z,16.67
2019-02-05T10:43:11.556Z,13.33
2019-02-05T10:45:40.634Z,13.13
2019-02-05T10:48:10.912Z,13.87
2019-02-05T10:50:40.074Z,14.83
2019-02-05T10:53:09.288Z,13.80
2019-02-05T10:55:38.501Z,13.37
2019-02-05T10:58:08.676Z,14.97
2019-02-05T11:00:38.303Z,14.93
2019-02-05T11:03:08.768Z,16.60
2019-02-05T11:05:39.347Z,15.47
2019-02-05T11:08:09.257Z,14.53
2019-02-05T11:10:38.577Z,16.27
2019-02-05T11:13:08.578Z,17.40
2019-02-05T11:15:37.770Z,14.97
2019-02-05T11:18:09.421Z,14.53
2019-02-05T11:20:38.475Z,16.83
2019-02-05T11:23:10.032Z,16.13
2019-02-05T11:25:39.281Z,14.97
2019-02-05T11:28:08.443Z,16.43
2019-02-05T11:30:40.042Z,14.23
2019-02-05T11:33:16.315Z,14.43
2019-02-05T11:35:46.875Z,63.27
2019-02-05T11:38:19.510Z,34.60
2019-02-05T11:40:48.740Z,25.10
2019-02-05T11:43:27.986Z,17.23
2019-02-05T11:45:57.612Z,15.20
2019-02-05T11:48:26.709Z,15.23
2019-02-05T11:50:55.925Z,15.67
2019-02-05T11:53:25.174Z,13.47
2019-02-05T11:55:54.326Z,13.40
2019-02-05T11:58:23.848Z,14.27
2019-02-05T12:01:03.893Z,13.10
2019-02-05T12:03:32.979Z,17.30
2019-02-05T12:06:02.160Z,15.80
2019-02-05T12:08:31.266Z,14.77
2019-02-05T12:11:00.482Z,14.47
2019-02-05T12:13:29.796Z,16.70
2019-02-05T12:15:58.983Z,14.20
2019-02-05T12:18:28.114Z,16.60
2019-02-05T12:20:57.201Z,13.23
2019-02-05T12:23:26.518Z,13.10
2019-02-05T12:25:55.628Z,13.83
2019-02-05T12:28:24.755Z,12.57
2019-02-05T12:30:53.908Z,13.43
2019-02-05T12:33:23.520Z,14.17
2019-02-05T12:35:52.778Z,12.30
2019-02-05T12:38:22.027Z,14.37
2019-02-05T12:40:51.073Z,17.43
2019-02-05T12:43:20.140Z,14.63
2019-02-05T12:45:49.233Z,17.57
2019-02-05T12:48:18.355Z,14.23
2019-02-05T12:50:47.830Z,14.43
2019-02-05T12:53:16.961Z,14.80
2019-02-05T12:55:46.098Z,14.73
2019-02-05T12:58:15.134Z,13.03
2019-02-05T13:00:56.482Z,13.30
2019-02-05T13:03:17.295Z,15.57
2019-02-05T13:05:47.005Z,24.03
2019-02-05T13:08:16.083Z,18.77
2019-02-05T13:10:47.570Z,19.30
2019-02-05T13:13:18.276Z,14.83
2019-02-05T13:15:47.905Z,15.90
2019-02-05T13:18:17.002Z,15.87
2019-02-05T13:20:46.142Z,14.47
2019-02-05T13:23:15.252Z,16.20
2019-02-05T13:25:44.633Z,14.33
2019-02-05T13:28:14.845Z,15.10
2019-02-05T13:30:44.041Z,17.30
2019-02-05T13:33:15.525Z,14.53
2019-02-05T13:35:52.303Z,15.13
2019-02-05T13:38:24.485Z,14.53
2019-02-05T13:40:53.697Z,16.50
2019-02-05T13:43:25.738Z,14.93
2019-02-05T13:46:06.772Z,15.77
2019-02-05T13:48:35.938Z,17.03
2019-02-05T13:51:06.440Z,14.73
2019-02-05T13:53:35.557Z,16.33
2019-02-05T13:56:05.873Z,16.00
2019-02-05T13:58:35.302Z,16.80
2019-02-05T14:01:05.130Z,15.90
2019-02-05T14:03:34.257Z,14.67
2019-02-05T14:06:03.328Z,13.93
2019-02-05T14:08:32.397Z,14.87
2019-02-05T14:11:02.043Z,18.17
2019-02-05T14:13:31.434Z,19.80
2019-02-05T14:16:01.410Z,16.67
2019-02-05T14:18:30.484Z,17.03
2019-02-05T14:21:02.025Z,15.43
2019-02-05T14:23:31.971Z,14.87
2019-02-05T14:26:01.132Z,14.47
2019-02-05T14:28:30.629Z,15.50
2019-02-05T14:30:59.970Z,15.67
2019-02-05T14:33:30.871Z,13.27
2019-02-05T14:36:00.225Z,15.33
2019-02-05T14:38:29.379Z,14.80
2019-02-05T14:40:58.671Z,15.23
2019-02-05T14:43:28.402Z,16.27
2019-02-05T14:45:58.516Z,14.90
2019-02-05T14:48:29.128Z,14.00
2019-02-05T14:50:59.665Z,16.80
2019-02-05T14:53:28.842Z,13.13
2019-02-05T14:55:58.381Z,15.13
2019-02-05T14:58:27.568Z,16.27
2019-02-05T15:00:56.739Z,15.90
2019-02-05T15:03:26.018Z,14.67
2019-02-05T15:05:55.245Z,15.93
2019-02-05T15:08:24.550Z,12.83
2019-02-05T15:10:54.128Z,24.53
2019-02-05T15:13:23.361Z,15.53
2019-02-05T15:15:52.955Z,15.37
2019-02-05T15:18:23.064Z,14.27
2019-02-05T15:20:52.659Z,17.20
2019-02-05T15:23:22.110Z,14.37
2019-02-05T15:25:52.212Z,13.77
2019-02-05T15:28:21.253Z,14.63
2019-02-05T15:30:52.159Z,14.50
2019-02-05T15:33:53.212Z,17.10
2019-02-05T15:36:31.604Z,18.10
2019-02-05T15:39:01.079Z,18.03
2019-02-05T15:41:30.281Z,15.40
2019-02-05T15:44:00.700Z,16.03
2019-02-05T15:46:31.171Z,13.93
2019-02-05T15:49:00.395Z,16.60
2019-02-05T15:51:29.462Z,15.43
2019-02-05T15:53:58.712Z,14.37
2019-02-05T15:56:28.074Z,15.13
2019-02-05T15:58:59.178Z,19.07
2019-02-05T16:01:31.343Z,16.57
2019-02-05T16:04:04.806Z,16.27
2019-02-05T16:07:02.452Z,17.10
2019-02-05T16:09:34.793Z,15.63
2019-02-05T16:12:06.359Z,16.60
2019-02-05T16:14:36.708Z,17.00
2019-02-05T16:17:14.760Z,18.93
2019-02-05T16:19:43.724Z,18.33
2019-02-05T16:22:14.193Z,16.67
2019-02-05T16:24:43.700Z,17.73
2019-02-05T16:27:15.438Z,15.13
2019-02-05T16:29:48.817Z,18.57
2019-02-05T16:32:20.846Z,22.03
2019-02-05T16:34:50.551Z,21.13
2019-02-05T16:37:20.155Z,18.50
2019-02-05T16:39:57.999Z,17.07
2019-02-05T16:42:30.784Z,18.70
2019-02-05T16:45:00.205Z,19.37
2019-02-05T16:47:29.974Z,19.03
2019-02-05T16:49:59.221Z,18.00
2019-02-05T16:52:29.008Z,17.77
2019-02-05T16:54:58.406Z,19.13
2019-02-05T16:57:27.412Z,20.33
2019-02-05T16:59:56.629Z,16.77
2019-02-05T17:02:28.989Z,16.67
2019-02-05T17:04:56.967Z,19.47
2019-02-05T17:07:31.502Z,16.47
2019-02-05T17:10:00.516Z,18.37
2019-02-05T17:12:29.646Z,18.43
2019-02-05T17:14:58.864Z,16.23
2019-02-05T17:17:32.301Z,16.67
2019-02-05T17:20:01.402Z,17.47
2019-02-05T17:22:30.712Z,17.60
2019-02-05T17:24:59.884Z,17.70
2019-02-05T17:27:29.207Z,15.40
2019-02-05T17:29:58.613Z,17.97
2019-02-05T17:32:39.755Z,16.97
2019-02-05T17:35:00.115Z,16.80
2019-02-05T17:37:29.641Z,19.87
2019-02-05T17:39:58.761Z,16.63
2019-02-05T17:42:27.976Z,16.60
2019-02-05T17:44:57.830Z,17.07
2019-02-05T17:47:26.960Z,16.37
2019-02-05T17:49:56.025Z,16.77
2019-02-05T17:52:25.308Z,19.33
2019-02-05T17:54:54.310Z,18.50
2019-02-05T17:57:23.528Z,17.00
2019-02-05T17:59:52.992Z,16.37
2019-02-05T18:02:22.029Z,15.47
2019-02-05T18:04:51.120Z,17.50
2019-02-05T18:07:20.136Z,17.10
2019-02-05T18:09:49.258Z,17.03
2019-02-05T18:12:18.304Z,15.30
2019-02-05T18:14:47.670Z,18.33
2019-02-05T18:17:22.434Z,16.07
2019-02-05T18:19:51.740Z,18.17
2019-02-05T18:22:20.858Z,15.47
2019-02-05T18:24:50.058Z,15.60
2019-02-05T18:27:19.149Z,17.73
2019-02-05T18:29:48.666Z,15.67
2019-02-05T18:32:17.668Z,18.37
2019-02-05T18:34:46.884Z,15.63
2019-02-05T18:37:16.028Z,15.00
2019-02-05T18:39:44.996Z,16.37
2019-02-05T18:42:14.391Z,15.33
2019-02-05T18:44:44.108Z,14.90
2019-02-05T18:47:14.395Z,15.53
2019-02-05T18:49:44.847Z,17.30
2019-02-05T18:52:13.994Z,17.70
2019-02-05T18:54:43.139Z,17.37
2019-02-05T18:57:12.349Z,18.67
2019-02-05T18:59:44.333Z,17.87
2019-02-05T19:02:14.194Z,17.17
2019-02-05T19:04:43.491Z,15.83
2019-02-05T19:07:13.177Z,17.70
2019-02-05T19:09:42.578Z,17.20
2019-02-05T19:12:11.904Z,17.13
2019-02-05T19:14:41.693Z,13.70
2019-02-05T19:17:10.913Z,16.03
2019-02-05T19:19:40.015Z,16.00
2019-02-05T19:22:09.451Z,18.93
2019-02-05T19:24:51.108Z,19.47
2019-02-05T19:27:20.271Z,20.40
2019-02-05T19:29:49.948Z,22.23
2019-02-05T19:32:22.749Z,19.63
2019-02-05T19:34:52.970Z,18.47
2019-02-05T19:37:22.111Z,20.43
2019-02-05T19:39:51.622Z,19.77
2019-02-05T19:42:21.101Z,20.17
2019-02-05T19:44:59.405Z,18.73
2019-02-05T19:47:32.200Z,16.93
2019-02-05T19:50:02.691Z,19.60
2019-02-05T19:52:32.675Z,16.07
2019-02-05T19:55:01.626Z,17.83
2019-02-05T19:57:30.663Z,17.23
2019-02-05T20:00:00.341Z,16.37
2019-02-05T20:02:29.421Z,18.03
2019-02-05T20:04:58.402Z,18.50
2019-02-05T20:07:27.817Z,20.70
2019-02-05T20:09:59.763Z,21.57
2019-02-05T20:12:29.249Z,21.87
2019-02-05T20:14:58.408Z,20.77
2019-02-05T20:17:27.542Z,24.07
2019-02-05T20:19:56.663Z,23.63
2019-02-05T20:22:26.203Z,21.13
2019-02-05T20:24:55.658Z,17.60
2019-02-05T20:27:25.405Z,19.60
2019-02-05T20:29:54.567Z,17.10
2019-02-05T20:32:23.721Z,18.67
2019-02-05T20:34:52.724Z,17.70
2019-02-05T20:37:21.753Z,16.80
2019-02-05T20:39:50.877Z,18.97
2019-02-05T20:42:20.047Z,17.60
2019-02-05T20:44:49.797Z,18.73
2019-02-05T20:47:37.089Z,15.63
2019-02-05T20:50:08.741Z,17.40
2019-02-05T20:52:37.939Z,15.67
2019-02-05T20:55:08.414Z,16.53
2019-02-05T20:57:37.709Z,16.07
2019-02-05T21:00:14.548Z,16.23
2019-02-05T21:02:43.827Z,17.93
2019-02-05T21:05:14.395Z,16.73
2019-02-05T21:07:43.565Z,17.50
2019-02-05T21:10:15.991Z,17.00
2019-02-05T21:12:45.184Z,18.13
2019-02-05T21:15:15.265Z,15.27
2019-02-05T21:17:44.389Z,19.63
2019-02-05T21:20:15.867Z,17.80
2019-02-05T21:22:47.879Z,18.27
2019-02-05T21:25:17.119Z,17.17
2019-02-05T21:27:47.086Z,30.33
2019-02-05T21:30:19.336Z,44.50
2019-02-05T21:32:48.554Z,28.13
2019-02-05T21:35:17.670Z,20.17
2019-02-05T21:37:46.974Z,18.77
2019-02-05T21:40:19.873Z,17.30
2019-02-05T21:42:49.168Z,19.40
2019-02-05T21:45:20.538Z,18.73
2019-02-05T21:47:50.659Z,20.07
2019-02-05T21:50:20.724Z,22.30
2019-02-05T21:52:49.847Z,20.03
2019-02-05T21:55:19.697Z,23.23
2019-02-05T21:57:49.041Z,18.37
2019-02-05T22:00:23.743Z,19.47
2019-02-05T22:02:52.995Z,18.57
2019-02-05T22:05:22.213Z,20.83
2019-02-05T22:07:51.341Z,19.87
2019-02-05T22:10:20.893Z,19.80
2019-02-05T22:12:50.048Z,18.17
2019-02-05T22:15:19.975Z,18.53
2019-02-05T22:17:49.249Z,20.47
2019-02-05T22:20:24.964Z,21.57
2019-02-05T22:22:56.157Z,23.03
2019-02-05T22:25:27.855Z,20.40
2019-02-05T22:28:03.337Z,22.10
2019-02-05T22:30:34.016Z,18.50
2019-02-05T22:33:03.128Z,18.83
2019-02-05T22:35:32.298Z,21.67
2019-02-05T22:38:01.597Z,18.23
2019-02-05T22:40:30.775Z,20.17
2019-02-05T22:42:59.907Z,19.33
2019-02-05T22:45:30.114Z,18.93
2019-02-05T22:47:59.310Z,20.53
2019-02-05T22:50:30.266Z,21.53
2019-02-05T22:52:59.850Z,19.33
2019-02-05T22:55:29.231Z,21.13
2019-02-05T22:57:58.359Z,19.87
2019-02-05T23:00:49.702Z,20.40
2019-02-05T23:03:31.565Z,19.67
2019-02-05T23:06:29.318Z,21.10
2019-02-05T23:09:14.499Z,21.97
2019-02-05T23:12:20.709Z,18.90
2019-02-05T23:14:53.823Z,19.47
2019-02-05T23:17:23.841Z,23.40
2019-02-05T23:19:52.977Z,20.07
2019-02-05T23:22:22.217Z,41.63
2019-02-05T23:24:53.597Z,44.33
2019-02-05T23:27:23.200Z,63.67
2019-02-05T23:29:57.391Z,90.07
2019-02-05T23:32:26.769Z,112.67
2019-02-05T23:35:02.205Z,63.53
2019-02-05T23:37:27.635Z,42.57
2019-02-05T23:39:56.875Z,24.97
2019-02-05T23:42:26.621Z,21.03
2019-02-05T23:44:56.133Z,19.03
2019-02-05T23:47:25.719Z,18.40
2019-02-05T23:49:55.036Z,17.93
2019-02-05T23:52:23.971Z,21.27
2019-02-05T23:54:52.997Z,18.67
2019-02-05T23:57:22.479Z,21.07
2019-02-05T23:59:51.619Z,17.93
